»·PEaware :: N1812C KPDX-KOTH

N1812C :: KPDX-KOTH

FLIGHT INFORMATION

Flight Status: Arrived
Operator: Privately registered:
United States
More flights under this callsign
Pilot: David G. (31571)
Aircraft: MOONEY M-20 201 202 205 220 ATS MSE
(M20P)
More flights by this aircraft type
Origin: KPDX Portland Intl
United States
Destination: KOTH North Bend Mun
United States
More flights between these airports :: More routes between these airports
Route: PTLD1 UBG V182 ONP T257 MITUE
File this flight plan on PilotEdge
Remarks:
Altitude:
(Current/Filed)
6,000ft
Speed:
(Current/Filed)
150kts
Departed: 22-Oct-20 05:35 PM
Arrived: 22-Oct-20 06:37 PM
Distance/Time
Traveled:
148nm/1:01
Distance/Time
To Go:
Arrived

Flight Plot

Page will automatically refresh every two minutes.

Flight plan parsing failed; only flown route is shown


Map Options




Map Legend


Flown Route
Filed Route
Departure Airport
Arrival Airport
Navaid (VOR, NDB)
Fix

Horizontal Profiles

Position Reports

Time Latitude Longitude Heading Altitude Ground
Speed
22-Oct-20 17:22 45.588087 -122.585877 205 30ft 0kts
22-Oct-20 17:23 45.588087 -122.585877 205 30ft 0kts
22-Oct-20 17:24 45.588087 -122.585877 205 30ft 0kts
22-Oct-20 17:25 45.588087 -122.585877 205 30ft 0kts
22-Oct-20 17:26 45.588087 -122.585877 205 30ft 0kts
22-Oct-20 17:27 45.588087 -122.585877 205 30ft 0kts
22-Oct-20 17:28 45.588087 -122.585877 205 30ft 0kts
22-Oct-20 17:29 45.588127 -122.585624 50 30ft 8kts
22-Oct-20 17:30 45.587358 -122.579790 116 38ft 20kts
22-Oct-20 17:31 45.583882 -122.570827 118 32ft 27kts
22-Oct-20 17:32 45.582806 -122.567279 46 34ft 0kts
22-Oct-20 17:34 45.582983 -122.567065 34 33ft 11kts
22-Oct-20 17:35 45.593543 -122.593282 295 290ft 135kts
22-Oct-20 17:36 45.597565 -122.647306 256 1481ft 151kts
22-Oct-20 17:37 45.587272 -122.700806 256 2989ft 131kts
22-Oct-20 17:38 45.559970 -122.724429 184 4487ft 137kts
22-Oct-20 17:39 45.527613 -122.738694 233 5956ft 124kts
22-Oct-20 17:40 45.495912 -122.782010 245 6270ft 180kts
22-Oct-20 17:41 45.458666 -122.831986 222 6011ft 194kts
22-Oct-20 17:42 45.421056 -122.886720 234 6000ft 191kts
22-Oct-20 17:43 45.386166 -122.934738 220 6008ft 175kts
22-Oct-20 17:44 45.348152 -122.978594 230 6001ft 174kts
22-Oct-20 17:45 45.316060 -123.028419 221 6006ft 174kts
22-Oct-20 17:46 45.282989 -123.077444 239 6011ft 171kts
22-Oct-20 17:47 45.249911 -123.127220 225 6006ft 175kts
22-Oct-20 17:48 45.211262 -123.177178 227 6003ft 195kts
22-Oct-20 17:49 45.171606 -123.230732 228 5999ft 196kts
22-Oct-20 17:50 45.132582 -123.285133 228 5999ft 197kts
22-Oct-20 17:51 45.093482 -123.339656 228 6000ft 197kts
22-Oct-20 17:52 45.053722 -123.393657 227 6006ft 198kts
22-Oct-20 17:52 45.020324 -123.438717 227 6004ft 199kts
22-Oct-20 17:54 44.973958 -123.502606 228 6003ft 200kts
22-Oct-20 17:54 44.941106 -123.548474 228 5989ft 197kts
22-Oct-20 17:56 44.894837 -123.612815 228 5998ft 200kts
22-Oct-20 17:56 44.861588 -123.658534 229 5998ft 200kts
22-Oct-20 17:57 44.823529 -123.714263 230 5991ft 196kts
22-Oct-20 17:58 44.784496 -123.769557 228 6001ft 201kts
22-Oct-20 17:59 44.743928 -123.823423 227 6001ft 200kts
22-Oct-20 18:00 44.703508 -123.878224 228 6021ft 204kts
22-Oct-20 18:01 44.663079 -123.933503 228 6006ft 201kts
22-Oct-20 18:02 44.622859 -123.988586 228 6015ft 202kts
22-Oct-20 18:03 44.582501 -124.043717 228 6019ft 203kts
22-Oct-20 18:04 44.532327 -124.069626 175 6016ft 210kts
22-Oct-20 18:05 44.473788 -124.070454 185 6016ft 210kts
22-Oct-20 18:06 44.415346 -124.076475 180 6017ft 210kts
22-Oct-20 18:07 44.356891 -124.081403 185 6015ft 210kts
22-Oct-20 18:08 44.298555 -124.088524 185 6032ft 211kts
22-Oct-20 18:09 44.242209 -124.110016 198 6016ft 209kts
22-Oct-20 18:10 44.186395 -124.133912 198 6012ft 209kts
22-Oct-20 18:11 44.130530 -124.157695 198 6012ft 210kts
22-Oct-20 18:12 44.074705 -124.181444 198 6011ft 210kts
22-Oct-20 18:13 44.018737 -124.205162 198 6011ft 210kts
22-Oct-20 18:14 43.962821 -124.228883 198 6011ft 210kts
22-Oct-20 18:15 43.906970 -124.252625 198 6011ft 210kts
22-Oct-20 18:16 43.850749 -124.276444 198 6010ft 211kts
22-Oct-20 18:17 43.794607 -124.300882 199 6001ft 211kts
22-Oct-20 18:18 43.738703 -124.325840 199 5999ft 211kts
22-Oct-20 18:19 43.682520 -124.350001 198 5998ft 211kts
22-Oct-20 18:20 43.626134 -124.373785 198 5998ft 212kts
22-Oct-20 18:21 43.569948 -124.397499 198 5807ft 200kts
22-Oct-20 18:22 43.519998 -124.418941 198 3808ft 183kts
22-Oct-20 18:23 43.474350 -124.438728 198 3018ft 172kts
22-Oct-20 18:24 43.428927 -124.458086 197 2994ft 169kts
22-Oct-20 18:25 43.383803 -124.476587 199 2993ft 169kts
22-Oct-20 18:26 43.348280 -124.517332 226 2993ft 168kts
22-Oct-20 18:27 43.307532 -124.535912 136 2992ft 162kts
22-Oct-20 18:28 43.317629 -124.493768 46 2991ft 129kts
22-Oct-20 18:29 43.335328 -124.453986 52 2337ft 113kts
22-Oct-20 18:30 43.349343 -124.419906 52 1641ft 102kts
22-Oct-20 18:31 43.363076 -124.386498 53 1299ft 104kts
22-Oct-20 18:32 43.377587 -124.351122 54 1292ft 107kts
22-Oct-20 18:33 43.392105 -124.315741 54 938ft 95kts
22-Oct-20 18:34 43.404544 -124.285441 56 458ft 85kts
22-Oct-20 18:35 43.415969 -124.257541 57 23ft 67kts
22-Oct-20 18:36 43.419189 -124.247307 148 17ft 0kts
22-Oct-20 18:37 43.417081 -124.245582 149 17ft 21kts
22-Oct-20 18:38 43.415858 -124.245902 234 17ft 0kts

Navigation Log

Ident Type
Flight plan parsing failed, navigation log unavailable